sensor_id;sensor_type;location;lat;lon;timestamp;temperature;humidity
41953;DHT22;63613;28.200;112.870;2022-11-20T00:01:16;18.00;71.50
41953;DHT22;63613;28.200;112.870;2022-11-20T00:03:44;18.00;71.60
41953;DHT22;63613;28.200;112.870;2022-11-20T00:06:14;18.00;71.60
41953;DHT22;63613;28.200;112.870;2022-11-20T00:08:42;18.00;71.60
41953;DHT22;63613;28.200;112.870;2022-11-20T00:11:15;18.10;71.50
41953;DHT22;63613;28.200;112.870;2022-11-20T00:13:43;18.00;71.50
41953;DHT22;63613;28.200;112.870;2022-11-20T00:16:12;18.00;71.50
41953;DHT22;63613;28.200;112.870;2022-11-20T00:18:39;18.10;71.40
41953;DHT22;63613;28.200;112.870;2022-11-20T00:21:14;18.10;71.40
41953;DHT22;63613;28.200;112.870;2022-11-20T00:23:42;18.10;71.40
41953;DHT22;63613;28.200;112.870;2022-11-20T00:26:15;18.10;71.40
41953;DHT22;63613;28.200;112.870;2022-11-20T00:28:48;18.10;71.40
41953;DHT22;63613;28.200;112.870;2022-11-20T00:31:16;18.10;71.40
41953;DHT22;63613;28.200;112.870;2022-11-20T00:33:44;18.10;71.50
41953;DHT22;63613;28.200;112.870;2022-11-20T00:36:16;18.10;71.50
41953;DHT22;63613;28.200;112.870;2022-11-20T00:38:44;18.10;71.50
41953;DHT22;63613;28.200;112.870;2022-11-20T00:41:14;18.10;71.50
41953;DHT22;63613;28.200;112.870;2022-11-20T00:43:41;18.10;71.50
41953;DHT22;63613;28.200;112.870;2022-11-20T00:46:16;18.10;71.50
41953;DHT22;63613;28.200;112.870;2022-11-20T00:48:44;18.20;71.50
41953;DHT22;63613;28.200;112.870;2022-11-20T00:51:14;18.20;71.50
41953;DHT22;63613;28.200;112.870;2022-11-20T00:53:41;18.20;71.60
41953;DHT22;63613;28.200;112.870;2022-11-20T00:56:11;18.20;71.60
41953;DHT22;63613;28.200;112.870;2022-11-20T00:58:41;18.20;71.60
41953;DHT22;63613;28.200;112.870;2022-11-20T01:01:20;18.20;71.80
41953;DHT22;63613;28.200;112.870;2022-11-20T01:03:49;18.20;72.10
41953;DHT22;63613;28.200;112.870;2022-11-20T01:06:19;18.30;72.40
41953;DHT22;63613;28.200;112.870;2022-11-20T01:08:48;18.40;72.70
41953;DHT22;63613;28.200;112.870;2022-11-20T01:11:19;18.50;72.80
41953;DHT22;63613;28.200;112.870;2022-11-20T01:13:47;18.60;73.10
41953;DHT22;63613;28.200;112.870;2022-11-20T01:16:16;18.60;73.40
41953;DHT22;63613;28.200;112.870;2022-11-20T01:18:47;18.70;73.60
41953;DHT22;63613;28.200;112.870;2022-11-20T01:21:17;18.80;74.00
41953;DHT22;63613;28.200;112.870;2022-11-20T01:23:45;18.80;74.30
41953;DHT22;63613;28.200;112.870;2022-11-20T01:26:16;18.90;74.60
41953;DHT22;63613;28.200;112.870;2022-11-20T01:28:43;18.90;74.90
41953;DHT22;63613;28.200;112.870;2022-11-20T01:33:40;19.10;75.10
41953;DHT22;63613;28.200;112.870;2022-11-20T01:36:08;19.20;75.20
41953;DHT22;63613;28.200;112.870;2022-11-20T01:38:58;19.30;75.20
41953;DHT22;63613;28.200;112.870;2022-11-20T01:41:47;19.30;75.30
41953;DHT22;63613;28.200;112.870;2022-11-20T01:44:49;19.40;75.30
41953;DHT22;63613;28.200;112.870;2022-11-20T01:47:34;19.50;74.90
41953;DHT22;63613;28.200;112.870;2022-11-20T01:50:16;19.60;74.80
41953;DHT22;63613;28.200;112.870;2022-11-20T01:53:18;19.60;74.60
41953;DHT22;63613;28.200;112.870;2022-11-20T01:55:49;19.70;74.30
41953;DHT22;63613;28.200;112.870;2022-11-20T01:58:22;19.80;74.10
41953;DHT22;63613;28.200;112.870;2022-11-20T02:00:49;19.80;74.00
41953;DHT22;63613;28.200;112.870;2022-11-20T02:03:36;19.90;73.90
41953;DHT22;63613;28.200;112.870;2022-11-20T02:06:23;20.00;73.40
41953;DHT22;63613;28.200;112.870;2022-11-20T02:08:51;20.00;73.20
41953;DHT22;63613;28.200;112.870;2022-11-20T02:11:19;20.00;72.90
41953;DHT22;63613;28.200;112.870;2022-11-20T02:14:06;20.00;72.50
41953;DHT22;63613;28.200;112.870;2022-11-20T02:16:39;20.00;72.30
41953;DHT22;63613;28.200;112.870;2022-11-20T02:19:31;20.10;71.90
41953;DHT22;63613;28.200;112.870;2022-11-20T02:22:13;20.20;71.90
41953;DHT22;63613;28.200;112.870;2022-11-20T02:24:42;20.30;72.00
41953;DHT22;63613;28.200;112.870;2022-11-20T02:27:13;20.30;71.80
41953;DHT22;63613;28.200;112.870;2022-11-20T02:30:01;20.40;71.40
41953;DHT22;63613;28.200;112.870;2022-11-20T02:32:34;20.50;71.10
41953;DHT22;63613;28.200;112.870;2022-11-20T02:37:56;20.80;71.00
41953;DHT22;63613;28.200;112.870;2022-11-20T02:40:24;20.80;70.80
41953;DHT22;63613;28.200;112.870;2022-11-20T02:42:56;20.90;70.50
41953;DHT22;63613;28.200;112.870;2022-11-20T02:45:24;21.00;70.30
41953;DHT22;63613;28.200;112.870;2022-11-20T02:47:51;21.20;70.30
41953;DHT22;63613;28.200;112.870;2022-11-20T02:50:19;21.30;70.30
41953;DHT22;63613;28.200;112.870;2022-11-20T02:52:48;21.30;70.20
41953;DHT22;63613;28.200;112.870;2022-11-20T02:55:15;21.50;69.90
41953;DHT22;63613;28.200;112.870;2022-11-20T02:57:42;21.50;69.80
41953;DHT22;63613;28.200;112.870;2022-11-20T03:00:10;21.60;69.80
41953;DHT22;63613;28.200;112.870;2022-11-20T03:02:37;21.70;69.50
41953;DHT22;63613;28.200;112.870;2022-11-20T03:05:05;21.80;69.20
41953;DHT22;63613;28.200;112.870;2022-11-20T03:07:32;21.80;68.70
41953;DHT22;63613;28.200;112.870;2022-11-20T03:10:00;21.90;68.50
41953;DHT22;63613;28.200;112.870;2022-11-20T03:12:27;21.90;68.40
41953;DHT22;63613;28.200;112.870;2022-11-20T03:14:54;22.00;68.10
41953;DHT22;63613;28.200;112.870;2022-11-20T03:17:21;21.80;68.10
41953;DHT22;63613;28.200;112.870;2022-11-20T03:19:48;21.80;67.70
41953;DHT22;63613;28.200;112.870;2022-11-20T03:22:15;21.80;67.10
41953;DHT22;63613;28.200;112.870;2022-11-20T03:24:42;21.80;66.40
41953;DHT22;63613;28.200;112.870;2022-11-20T03:27:12;21.80;65.70
41953;DHT22;63613;28.200;112.870;2022-11-20T03:29:39;21.80;65.50
41953;DHT22;63613;28.200;112.870;2022-11-20T03:32:06;21.70;65.20
41953;DHT22;63613;28.200;112.870;2022-11-20T03:34:33;21.80;64.90
41953;DHT22;63613;28.200;112.870;2022-11-20T03:37:00;21.80;64.60
41953;DHT22;63613;28.200;112.870;2022-11-20T03:39:28;21.80;64.50
41953;DHT22;63613;28.200;112.870;2022-11-20T03:41:55;21.80;64.60
41953;DHT22;63613;28.200;112.870;2022-11-20T03:44:22;21.80;64.40
41953;DHT22;63613;28.200;112.870;2022-11-20T03:46:49;21.80;64.20
41953;DHT22;63613;28.200;112.870;2022-11-20T03:49:36;21.80;64.20
41953;DHT22;63613;28.200;112.870;2022-11-20T03:52:03;21.90;64.00
41953;DHT22;63613;28.200;112.870;2022-11-20T03:54:30;22.00;64.10
41953;DHT22;63613;28.200;112.870;2022-11-20T03:56:57;22.00;64.20
41953;DHT22;63613;28.200;112.870;2022-11-20T03:59:27;22.10;64.10
41953;DHT22;63613;28.200;112.870;2022-11-20T04:01:54;22.20;64.10
41953;DHT22;63613;28.200;112.870;2022-11-20T04:04:21;22.30;64.00
41953;DHT22;63613;28.200;112.870;2022-11-20T04:06:48;22.30;63.90
41953;DHT22;63613;28.200;112.870;2022-11-20T04:09:15;22.20;62.10
41953;DHT22;63613;28.200;112.870;2022-11-20T04:11:42;22.10;61.20
41953;DHT22;63613;28.200;112.870;2022-11-20T04:14:14;22.00;60.30
41953;DHT22;63613;28.200;112.870;2022-11-20T04:16:42;22.00;60.30
41953;DHT22;63613;28.200;112.870;2022-11-20T04:19:14;21.80;59.00
41953;DHT22;63613;28.200;112.870;2022-11-20T04:21:43;21.80;60.70
41953;DHT22;63613;28.200;112.870;2022-11-20T04:24:12;21.80;58.70
41953;DHT22;63613;28.200;112.870;2022-11-20T04:26:39;21.80;60.30
41953;DHT22;63613;28.200;112.870;2022-11-20T04:29:09;21.90;60.40
41953;DHT22;63613;28.200;112.870;2022-11-20T04:31:36;21.90;60.00
41953;DHT22;63613;28.200;112.870;2022-11-20T04:34:06;21.90;58.90
41953;DHT22;63613;28.200;112.870;2022-11-20T04:36:33;21.90;58.80
41953;DHT22;63613;28.200;112.870;2022-11-20T04:39:04;21.90;59.50
41953;DHT22;63613;28.200;112.870;2022-11-20T04:41:34;22.00;59.60
41953;DHT22;63613;28.200;112.870;2022-11-20T04:44:04;22.00;59.30
41953;DHT22;63613;28.200;112.870;2022-11-20T04:46:33;22.00;57.70
41953;DHT22;63613;28.200;112.870;2022-11-20T04:49:01;21.90;57.10
41953;DHT22;63613;28.200;112.870;2022-11-20T04:51:28;21.90;58.30
41953;DHT22;63613;28.200;112.870;2022-11-20T04:54:15;22.10;58.40
41953;DHT22;63613;28.200;112.870;2022-11-20T04:56:43;22.10;58.60
41953;DHT22;63613;28.200;112.870;2022-11-20T04:59:13;22.20;58.70
41953;DHT22;63613;28.200;112.870;2022-11-20T05:01:40;22.20;58.50
41953;DHT22;63613;28.200;112.870;2022-11-20T05:04:07;22.20;57.90
41953;DHT22;63613;28.200;112.870;2022-11-20T05:06:34;22.20;57.80
41953;DHT22;63613;28.200;112.870;2022-11-20T05:09:01;22.20;57.30
41953;DHT22;63613;28.200;112.870;2022-11-20T05:11:29;22.20;57.40
41953;DHT22;63613;28.200;112.870;2022-11-20T05:14:16;22.30;58.00
41953;DHT22;63613;28.200;112.870;2022-11-20T05:16:49;22.40;57.80
41953;DHT22;63613;28.200;112.870;2022-11-20T05:19:19;22.40;58.80
41953;DHT22;63613;28.200;112.870;2022-11-20T05:21:46;22.40;59.60
41953;DHT22;63613;28.200;112.870;2022-11-20T05:24:13;22.30;58.90
41953;DHT22;63613;28.200;112.870;2022-11-20T05:26:42;22.20;59.20
41953;DHT22;63613;28.200;112.870;2022-11-20T05:29:11;22.20;55.90
41953;DHT22;63613;28.200;112.870;2022-11-20T05:31:42;22.10;57.20
41953;DHT22;63613;28.200;112.870;2022-11-20T05:34:09;22.10;59.40
41953;DHT22;63613;28.200;112.870;2022-11-20T05:36:56;22.10;59.60
41953;DHT22;63613;28.200;112.870;2022-11-20T05:39:27;22.20;59.10
41953;DHT22;63613;28.200;112.870;2022-11-20T05:41:54;22.10;59.40
41953;DHT22;63613;28.200;112.870;2022-11-20T05:44:40;22.20;59.00
41953;DHT22;63613;28.200;112.870;2022-11-20T05:47:07;22.30;58.60
41953;DHT22;63613;28.200;112.870;2022-11-20T05:49:34;22.30;57.70
41953;DHT22;63613;28.200;112.870;2022-11-20T05:52:01;22.30;57.60
41953;DHT22;63613;28.200;112.870;2022-11-20T05:54:28;22.40;56.90
41953;DHT22;63613;28.200;112.870;2022-11-20T05:56:55;22.30;57.10
41953;DHT22;63613;28.200;112.870;2022-11-20T05:59:25;22.30;56.70
41953;DHT22;63613;28.200;112.870;2022-11-20T06:01:52;22.50;57.00
41953;DHT22;63613;28.200;112.870;2022-11-20T06:04:20;22.70;57.00
41953;DHT22;63613;28.200;112.870;2022-11-20T06:06:49;22.70;56.20
41953;DHT22;63613;28.200;112.870;2022-11-20T06:09:36;22.80;55.80
41953;DHT22;63613;28.200;112.870;2022-11-20T06:12:03;22.90;56.60
41953;DHT22;63613;28.200;112.870;2022-11-20T06:14:32;23.00;56.90
41953;DHT22;63613;28.200;112.870;2022-11-20T06:17:00;23.10;56.70
41953;DHT22;63613;28.200;112.870;2022-11-20T06:19:28;23.10;55.50
41953;DHT22;63613;28.200;112.870;2022-11-20T06:21:55;23.20;55.60
41953;DHT22;63613;28.200;112.870;2022-11-20T06:24:23;23.30;55.00
41953;DHT22;63613;28.200;112.870;2022-11-20T06:26:51;23.30;55.10
41953;DHT22;63613;28.200;112.870;2022-11-20T06:29:21;23.30;55.00
41953;DHT22;63613;28.200;112.870;2022-11-20T06:31:49;23.30;53.80
41953;DHT22;63613;28.200;112.870;2022-11-20T06:34:17;23.30;54.40
41953;DHT22;63613;28.200;112.870;2022-11-20T06:36:44;23.20;54.90
41953;DHT22;63613;28.200;112.870;2022-11-20T06:39:11;23.10;55.30
41953;DHT22;63613;28.200;112.870;2022-11-20T06:41:38;22.90;55.40
41953;DHT22;63613;28.200;112.870;2022-11-20T06:44:26;22.90;55.50
41953;DHT22;63613;28.200;112.870;2022-11-20T06:46:56;22.80;55.40
41953;DHT22;63613;28.200;112.870;2022-11-20T06:49:23;22.80;56.10
41953;DHT22;63613;28.200;112.870;2022-11-20T06:51:50;22.80;56.20
41953;DHT22;63613;28.200;112.870;2022-11-20T06:54:17;22.70;56.30
41953;DHT22;63613;28.200;112.870;2022-11-20T06:56:47;22.60;56.50
41953;DHT22;63613;28.200;112.870;2022-11-20T06:59:15;22.60;56.80
41953;DHT22;63613;28.200;112.870;2022-11-20T07:01:42;22.40;57.00
41953;DHT22;63613;28.200;112.870;2022-11-20T07:04:09;22.30;57.00
41953;DHT22;63613;28.200;112.870;2022-11-20T07:06:37;22.30;57.30
41953;DHT22;63613;28.200;112.870;2022-11-20T07:09:04;22.30;57.30
41953;DHT22;63613;28.200;112.870;2022-11-20T07:11:31;22.20;57.70
41953;DHT22;63613;28.200;112.870;2022-11-20T07:13:58;22.10;57.90
41953;DHT22;63613;28.200;112.870;2022-11-20T07:16:45;22.10;57.80
41953;DHT22;63613;28.200;112.870;2022-11-20T07:19:13;22.10;57.80
41953;DHT22;63613;28.200;112.870;2022-11-20T07:21:40;22.00;58.00
41953;DHT22;63613;28.200;112.870;2022-11-20T07:24:07;22.00;58.30
41953;DHT22;63613;28.200;112.870;2022-11-20T07:26:34;22.00;58.40
41953;DHT22;63613;28.200;112.870;2022-11-20T07:29:01;22.00;58.50
41953;DHT22;63613;28.200;112.870;2022-11-20T07:31:30;22.00;58.60
41953;DHT22;63613;28.200;112.870;2022-11-20T07:33:57;22.00;58.70
41953;DHT22;63613;28.200;112.870;2022-11-20T07:36:24;21.90;58.90
41953;DHT22;63613;28.200;112.870;2022-11-20T07:38:51;21.80;59.10
41953;DHT22;63613;28.200;112.870;2022-11-20T07:41:18;21.80;59.20
41953;DHT22;63613;28.200;112.870;2022-11-20T07:43:45;21.80;59.50
41953;DHT22;63613;28.200;112.870;2022-11-20T07:46:12;21.80;59.80
41953;DHT22;63613;28.200;112.870;2022-11-20T07:48:40;22.30;58.50
41953;DHT22;63613;28.200;112.870;2022-11-20T07:51:07;25.30;51.30
41953;DHT22;63613;28.200;112.870;2022-11-20T07:53:34;27.20;46.20
41953;DHT22;63613;28.200;112.870;2022-11-20T07:56:02;28.00;44.20
41953;DHT22;63613;28.200;112.870;2022-11-20T07:58:30;28.20;43.50
41953;DHT22;63613;28.200;112.870;2022-11-20T08:01:06;28.20;43.40
41953;DHT22;63613;28.200;112.870;2022-11-20T08:03:34;27.40;44.90
41953;DHT22;63613;28.200;112.870;2022-11-20T08:06:04;25.90;48.20
41953;DHT22;63613;28.200;112.870;2022-11-20T08:08:31;24.80;51.20
41953;DHT22;63613;28.200;112.870;2022-11-20T08:10:58;24.30;52.90
41953;DHT22;63613;28.200;112.870;2022-11-20T08:13:44;23.90;53.80
41953;DHT22;63613;28.200;112.870;2022-11-20T08:16:32;23.70;54.60
41953;DHT22;63613;28.200;112.870;2022-11-20T08:18:59;23.50;54.90
41953;DHT22;63613;28.200;112.870;2022-11-20T08:21:46;23.50;55.00
41953;DHT22;63613;28.200;112.870;2022-11-20T08:24:13;24.10;53.90
41953;DHT22;63613;28.200;112.870;2022-11-20T08:26:41;24.90;51.80
41953;DHT22;63613;28.200;112.870;2022-11-20T08:29:08;25.20;50.70
41953;DHT22;63613;28.200;112.870;2022-11-20T08:31:35;25.30;50.40
41953;DHT22;63613;28.200;112.870;2022-11-20T08:34:02;25.30;50.30
41953;DHT22;63613;28.200;112.870;2022-11-20T08:36:33;25.20;50.60
41953;DHT22;63613;28.200;112.870;2022-11-20T08:39:01;23.90;53.60
41953;DHT22;63613;28.200;112.870;2022-11-20T08:41:29;23.30;55.60
41953;DHT22;63613;28.200;112.870;2022-11-20T08:44:04;22.90;56.70
41953;DHT22;63613;28.200;112.870;2022-11-20T08:46:40;22.70;57.40
41953;DHT22;63613;28.200;112.870;2022-11-20T08:49:11;22.50;58.00
41953;DHT22;63613;28.200;112.870;2022-11-20T08:51:41;22.30;58.50
41953;DHT22;63613;28.200;112.870;2022-11-20T08:54:13;22.30;59.10
41953;DHT22;63613;28.200;112.870;2022-11-20T08:57:00;22.10;59.60
41953;DHT22;63613;28.200;112.870;2022-11-20T08:59:30;22.00;59.80
41953;DHT22;63613;28.200;112.870;2022-11-20T09:01:57;22.00;60.00
41953;DHT22;63613;28.200;112.870;2022-11-20T09:04:24;21.80;60.30
41953;DHT22;63613;28.200;112.870;2022-11-20T09:06:51;21.80;60.60
41953;DHT22;63613;28.200;112.870;2022-11-20T09:09:20;21.70;61.00
41953;DHT22;63613;28.200;112.870;2022-11-20T09:11:47;21.60;61.30
41953;DHT22;63613;28.200;112.870;2022-11-20T09:14:16;21.60;61.50
41953;DHT22;63613;28.200;112.870;2022-11-20T09:16:45;21.50;61.60
41953;DHT22;63613;28.200;112.870;2022-11-20T09:19:13;21.50;61.80
41953;DHT22;63613;28.200;112.870;2022-11-20T09:21:40;21.40;61.90
41953;DHT22;63613;28.200;112.870;2022-11-20T09:24:07;21.50;61.80
41953;DHT22;63613;28.200;112.870;2022-11-20T09:26:34;21.50;61.80
41953;DHT22;63613;28.200;112.870;2022-11-20T09:29:01;21.40;61.70
41953;DHT22;63613;28.200;112.870;2022-11-20T09:31:28;21.40;61.80
41953;DHT22;63613;28.200;112.870;2022-11-20T09:33:55;21.40;61.80
41953;DHT22;63613;28.200;112.870;2022-11-20T09:36:22;21.40;61.90
41953;DHT22;63613;28.200;112.870;2022-11-20T09:38:50;21.30;62.00
41953;DHT22;63613;28.200;112.870;2022-11-20T09:44:25;21.30;62.10
41953;DHT22;63613;28.200;112.870;2022-11-20T09:53:01;21.20;62.10
41953;DHT22;63613;28.200;112.870;2022-11-20T09:55:31;21.30;62.20
41953;DHT22;63613;28.200;112.870;2022-11-20T09:57:59;21.20;62.30
41953;DHT22;63613;28.200;112.870;2022-11-20T10:00:28;21.10;62.30
41953;DHT22;63613;28.200;112.870;2022-11-20T10:03:16;21.10;62.30
41953;DHT22;63613;28.200;112.870;2022-11-20T10:06:10;21.10;62.40
41953;DHT22;63613;28.200;112.870;2022-11-20T10:08:50;21.10;62.40
41953;DHT22;63613;28.200;112.870;2022-11-20T10:17:12;21.10;62.50
41953;DHT22;63613;28.200;112.870;2022-11-20T10:30:15;21.00;62.70
41953;DHT22;63613;28.200;112.870;2022-11-20T10:32:46;21.00;62.80
41953;DHT22;63613;28.200;112.870;2022-11-20T10:37:58;20.90;62.90
41953;DHT22;63613;28.200;112.870;2022-11-20T10:43:32;20.90;63.00
41953;DHT22;63613;28.200;112.870;2022-11-20T10:46:06;20.90;63.10
41953;DHT22;63613;28.200;112.870;2022-11-20T10:48:36;20.90;63.10
41953;DHT22;63613;28.200;112.870;2022-11-20T10:56:52;20.80;63.20
41953;DHT22;63613;28.200;112.870;2022-11-20T11:02:29;20.80;63.30
41953;DHT22;63613;28.200;112.870;2022-11-20T11:07:54;20.80;63.40
41953;DHT22;63613;28.200;112.870;2022-11-20T11:13:03;20.80;63.50
41953;DHT22;63613;28.200;112.870;2022-11-20T11:15:39;20.80;63.50
41953;DHT22;63613;28.200;112.870;2022-11-20T11:18:22;20.80;63.60
41953;DHT22;63613;28.200;112.870;2022-11-20T11:20:54;20.80;63.70
41953;DHT22;63613;28.200;112.870;2022-11-20T11:25:59;20.80;63.80
41953;DHT22;63613;28.200;112.870;2022-11-20T11:28:28;20.80;63.80
41953;DHT22;63613;28.200;112.870;2022-11-20T11:30:55;20.80;63.90
41953;DHT22;63613;28.200;112.870;2022-11-20T11:33:25;20.80;64.00
41953;DHT22;63613;28.200;112.870;2022-11-20T11:36:14;20.80;64.10
41953;DHT22;63613;28.200;112.870;2022-11-20T11:38:43;20.70;64.20
41953;DHT22;63613;28.200;112.870;2022-11-20T11:41:35;20.70;64.20
41953;DHT22;63613;28.200;112.870;2022-11-20T11:44:29;20.80;64.40
41953;DHT22;63613;28.200;112.870;2022-11-20T11:47:35;20.70;64.50
41953;DHT22;63613;28.200;112.870;2022-11-20T11:52:58;20.70;64.70
41953;DHT22;63613;28.200;112.870;2022-11-20T11:55:35;20.70;64.90
41953;DHT22;63613;28.200;112.870;2022-11-20T11:58:11;20.70;64.90
41953;DHT22;63613;28.200;112.870;2022-11-20T12:00:45;20.70;65.10
41953;DHT22;63613;28.200;112.870;2022-11-20T12:03:53;20.70;65.20
41953;DHT22;63613;28.200;112.870;2022-11-20T12:06:23;20.70;65.30
41953;DHT22;63613;28.200;112.870;2022-11-20T12:08:59;20.70;65.50
41953;DHT22;63613;28.200;112.870;2022-11-20T12:12:05;20.70;65.60
41953;DHT22;63613;28.200;112.870;2022-11-20T12:14:43;20.70;65.60
41953;DHT22;63613;28.200;112.870;2022-11-20T12:17:13;20.70;65.80
41953;DHT22;63613;28.200;112.870;2022-11-20T12:19:41;20.60;66.00
41953;DHT22;63613;28.200;112.870;2022-11-20T12:22:32;20.70;66.10
41953;DHT22;63613;28.200;112.870;2022-11-20T12:30:26;20.60;66.20
41953;DHT22;63613;28.200;112.870;2022-11-20T12:51:31;20.60;66.70
41953;DHT22;63613;28.200;112.870;2022-11-20T12:59:28;20.60;66.60
41953;DHT22;63613;28.200;112.870;2022-11-20T13:02:25;20.60;66.60
41953;DHT22;63613;28.200;112.870;2022-11-20T13:05:11;20.60;66.60
41953;DHT22;63613;28.200;112.870;2022-11-20T13:07:52;20.60;66.60
41953;DHT22;63613;28.200;112.870;2022-11-20T13:18:28;20.60;66.70
41953;DHT22;63613;28.200;112.870;2022-11-20T13:21:01;20.60;66.80
41953;DHT22;63613;28.200;112.870;2022-11-20T13:23:28;20.60;66.70
41953;DHT22;63613;28.200;112.870;2022-11-20T13:26:14;20.50;66.70
41953;DHT22;63613;28.200;112.870;2022-11-20T13:28:42;20.50;66.80
41953;DHT22;63613;28.200;112.870;2022-11-20T13:31:28;20.50;66.80
41953;DHT22;63613;28.200;112.870;2022-11-20T13:33:59;20.50;66.90
41953;DHT22;63613;28.200;112.870;2022-11-20T13:36:28;20.50;66.80
41953;DHT22;63613;28.200;112.870;2022-11-20T13:39:34;20.50;66.90
41953;DHT22;63613;28.200;112.870;2022-11-20T13:44:48;20.50;66.90
41953;DHT22;63613;28.200;112.870;2022-11-20T13:47:22;20.50;66.90
41953;DHT22;63613;28.200;112.870;2022-11-20T13:49:51;20.50;66.90
41953;DHT22;63613;28.200;112.870;2022-11-20T13:55:23;20.60;67.10
41953;DHT22;63613;28.200;112.870;2022-11-20T13:58:47;20.50;67.10
41953;DHT22;63613;28.200;112.870;2022-11-20T14:01:17;20.50;67.10
41953;DHT22;63613;28.200;112.870;2022-11-20T14:03:43;20.50;67.20
41953;DHT22;63613;28.200;112.870;2022-11-20T14:06:27;20.50;67.30
41953;DHT22;63613;28.200;112.870;2022-11-20T14:08:56;20.40;67.40
41953;DHT22;63613;28.200;112.870;2022-11-20T14:11:28;20.50;67.40
41953;DHT22;63613;28.200;112.870;2022-11-20T14:16:44;20.50;67.50
41953;DHT22;63613;28.200;112.870;2022-11-20T14:19:31;20.40;67.50
41953;DHT22;63613;28.200;112.870;2022-11-20T14:22:19;20.50;67.50
41953;DHT22;63613;28.200;112.870;2022-11-20T14:24:48;20.50;67.50
41953;DHT22;63613;28.200;112.870;2022-11-20T14:27:18;20.50;67.60
41953;DHT22;63613;28.200;112.870;2022-11-20T14:29:48;20.40;67.60
41953;DHT22;63613;28.200;112.870;2022-11-20T14:32:21;20.50;67.60
41953;DHT22;63613;28.200;112.870;2022-11-20T14:34:50;20.50;67.70
41953;DHT22;63613;28.200;112.870;2022-11-20T14:37:24;20.50;67.60
41953;DHT22;63613;28.200;112.870;2022-11-20T14:39:57;20.50;67.80
41953;DHT22;63613;28.200;112.870;2022-11-20T14:42:26;20.50;67.80
41953;DHT22;63613;28.200;112.870;2022-11-20T14:45:00;20.50;67.90
41953;DHT22;63613;28.200;112.870;2022-11-20T14:47:31;20.40;67.80
41953;DHT22;63613;28.200;112.870;2022-11-20T14:50:02;20.40;67.90
41953;DHT22;63613;28.200;112.870;2022-11-20T14:52:29;20.40;67.90
41953;DHT22;63613;28.200;112.870;2022-11-20T14:54:58;20.40;67.90
41953;DHT22;63613;28.200;112.870;2022-11-20T14:57:36;20.40;67.80
41953;DHT22;63613;28.200;112.870;2022-11-20T15:02:45;20.40;67.90
41953;DHT22;63613;28.200;112.870;2022-11-20T15:05:13;20.40;67.90
41953;DHT22;63613;28.200;112.870;2022-11-20T15:07:46;20.40;67.90
41953;DHT22;63613;28.200;112.870;2022-11-20T15:10:26;20.40;67.90
41953;DHT22;63613;28.200;112.870;2022-11-20T15:12:56;20.40;67.90
41953;DHT22;63613;28.200;112.870;2022-11-20T15:15:50;20.40;67.90
41953;DHT22;63613;28.200;112.870;2022-11-20T15:18:38;20.40;67.90
41953;DHT22;63613;28.200;112.870;2022-11-20T15:21:18;20.40;67.90
41953;DHT22;63613;28.200;112.870;2022-11-20T15:23:47;20.40;67.90
41953;DHT22;63613;28.200;112.870;2022-11-20T15:26:23;20.40;68.00
41953;DHT22;63613;28.200;112.870;2022-11-20T15:28:56;20.40;68.00
41953;DHT22;63613;28.200;112.870;2022-11-20T15:31:24;20.40;67.90
41953;DHT22;63613;28.200;112.870;2022-11-20T15:33:54;20.40;68.00
41953;DHT22;63613;28.200;112.870;2022-11-20T15:36:21;20.40;68.00
41953;DHT22;63613;28.200;112.870;2022-11-20T15:38:49;20.40;68.00
41953;DHT22;63613;28.200;112.870;2022-11-20T15:41:39;20.40;68.00
41953;DHT22;63613;28.200;112.870;2022-11-20T15:44:06;20.40;68.10
41953;DHT22;63613;28.200;112.870;2022-11-20T15:46:37;20.40;68.00
41953;DHT22;63613;28.200;112.870;2022-11-20T15:49:08;20.30;68.00
41953;DHT22;63613;28.200;112.870;2022-11-20T15:51:46;20.40;68.10
41953;DHT22;63613;28.200;112.870;2022-11-20T15:54:24;20.30;68.00
41953;DHT22;63613;28.200;112.870;2022-11-20T15:56:51;20.30;68.10
41953;DHT22;63613;28.200;112.870;2022-11-20T15:59:24;20.30;68.00
41953;DHT22;63613;28.200;112.870;2022-11-20T16:01:54;20.30;68.10
41953;DHT22;63613;28.200;112.870;2022-11-20T16:04:21;20.40;68.10
41953;DHT22;63613;28.200;112.870;2022-11-20T16:06:48;20.30;68.10
41953;DHT22;63613;28.200;112.870;2022-11-20T16:09:15;20.30;68.00
41953;DHT22;63613;28.200;112.870;2022-11-20T16:11:44;20.30;68.10
41953;DHT22;63613;28.200;112.870;2022-11-20T16:14:11;20.30;68.00
41953;DHT22;63613;28.200;112.870;2022-11-20T16:16:57;20.30;68.00
41953;DHT22;63613;28.200;112.870;2022-11-20T16:19:24;20.30;68.10
41953;DHT22;63613;28.200;112.870;2022-11-20T16:21:51;20.30;68.10
41953;DHT22;63613;28.200;112.870;2022-11-20T16:24:18;20.30;68.10
41953;DHT22;63613;28.200;112.870;2022-11-20T16:26:45;20.30;68.20
41953;DHT22;63613;28.200;112.870;2022-11-20T16:29:14;20.30;68.20
41953;DHT22;63613;28.200;112.870;2022-11-20T16:31:41;20.30;68.40
41953;DHT22;63613;28.200;112.870;2022-11-20T16:34:08;20.30;68.20
41953;DHT22;63613;28.200;112.870;2022-11-20T16:36:35;20.30;68.20
41953;DHT22;63613;28.200;112.870;2022-11-20T16:39:05;20.30;68.20
41953;DHT22;63613;28.200;112.870;2022-11-20T16:41:34;20.30;68.20
41953;DHT22;63613;28.200;112.870;2022-11-20T16:44:06;20.30;68.20
41953;DHT22;63613;28.200;112.870;2022-11-20T16:46:34;20.30;68.20
41953;DHT22;63613;28.200;112.870;2022-11-20T16:49:05;20.30;68.20
41953;DHT22;63613;28.200;112.870;2022-11-20T16:51:35;20.30;68.20
41953;DHT22;63613;28.200;112.870;2022-11-20T16:54:08;20.30;68.20
41953;DHT22;63613;28.200;112.870;2022-11-20T16:56:38;20.30;68.20
41953;DHT22;63613;28.200;112.870;2022-11-20T16:59:05;20.30;68.20
41953;DHT22;63613;28.200;112.870;2022-11-20T17:01:32;20.30;68.20
41953;DHT22;63613;28.200;112.870;2022-11-20T17:04:04;20.30;68.20
41953;DHT22;63613;28.200;112.870;2022-11-20T17:06:36;20.30;68.10
41953;DHT22;63613;28.200;112.870;2022-11-20T17:09:05;20.30;68.10
41953;DHT22;63613;28.200;112.870;2022-11-20T17:11:37;20.30;68.30
41953;DHT22;63613;28.200;112.870;2022-11-20T17:14:07;20.30;68.20
41953;DHT22;63613;28.200;112.870;2022-11-20T17:16:35;20.30;68.30